< < Back
Terminal Aerodrome Forecast


Current Version              Previous Versions:   1  2  3  4  5  6  7  8  9  

Terminal Aerodrome Forecast

754
FTUS42 KTAE 301729
TAFABY
TAF
KABY 301729Z 3018/0118 27011KT P6SM VCTS SCT035CB
      TEMPO 3019/3023 VRB15G30KT 3SM TSRA BKN025CB
     FM010100 22005KT P6SM SCT100 BKN200
     FM011400 25005KT P6SM SCT040=



Latest METAR

800
SAUS70 KWBC 011200 RRU
MTRABY
METAR KABY 011153Z 21006KT 10SM CLR 21/20 A3010 RMK AO2 SLP192 70006
T02110200 10211 20200 50005


USA.gov is the U.S. government's official web portal to all federal, state and local government web resources and services.